Time;durP1;ratioP1;P1;durP2;ratioP2;P2;SDS_P1;SDS_P2;PMS_P1;PMS_P2;Temp;Humidity;BMP_temperature;BMP_pressure;BME280_temperature;BME280_humidity;BME280_pressure;Samples;Min_cycle;Max_cycle;Signal;HPM_P1;HPM_P2
2022/05/31 00:01:36;;;;;;;8.50;4.97;;;11.00;1.00;;;;;;5062210;28;20628;-73
2022/05/31 00:04:03;;;;;;;9.63;5.17;;;11.10;1.00;;;;;;5061532;28;20468;-73
2022/05/31 00:06:31;;;;;;;8.47;4.40;;;11.10;1.00;;;;;;5061324;28;20553;-74
2022/05/31 00:08:58;;;;;;;8.33;5.20;;;11.10;1.00;;;;;;5059951;28;20456;-73
2022/05/31 00:11:25;;;;;;;8.97;4.73;;;11.00;1.00;;;;;;5062303;28;20459;-74
2022/05/31 00:13:51;;;;;;;9.20;4.87;;;11.00;1.00;;;;;;5062666;28;21230;-73
2022/05/31 00:16:18;;;;;;;8.10;4.87;;;11.00;1.00;;;;;;5060847;28;20476;-73
2022/05/31 00:18:45;;;;;;;9.50;4.80;;;11.00;1.00;;;;;;5063329;28;20471;-74
2022/05/31 00:21:12;;;;;;;9.07;5.27;;;11.00;1.00;;;;;;5063177;28;20978;-73
2022/05/31 00:23:43;;;;;;;8.53;4.50;;;11.00;1.00;;;;;;5061950;28;20615;-73
2022/05/31 00:26:10;;;;;;;7.80;4.50;;;11.10;1.00;;;;;;5049475;28;20468;-74
2022/05/31 00:28:37;;;;;;;9.10;5.20;;;11.10;1.00;;;;;;5056435;28;20552;-74
2022/05/31 00:31:04;;;;;;;9.60;5.23;;;11.10;1.00;;;;;;5060876;28;20467;-73
2022/05/31 00:33:31;;;;;;;9.13;5.00;;;11.10;1.00;;;;;;5064358;28;20503;-73
2022/05/31 00:35:57;;;;;;;8.60;4.90;;;11.10;1.00;;;;;;5060104;28;20480;-73
2022/05/31 00:38:24;;;;;;;10.57;5.40;;;11.10;1.00;;;;;;5059433;28;20546;-72
2022/05/31 00:40:52;;;;;;;9.20;4.57;;;11.10;1.00;;;;;;5062829;28;20553;-74
2022/05/31 00:43:22;;;;;;;8.57;5.63;;;11.20;1.00;;;;;;5061697;28;20557;-73
2022/05/31 00:45:54;;;;;;;9.20;5.50;;;11.20;1.00;;;;;;5059289;28;20468;-73
2022/05/31 00:48:24;;;;;;;8.60;4.50;;;11.30;1.00;;;;;;5061155;28;20550;-73
2022/05/31 00:50:54;;;;;;;8.37;4.90;;;11.40;1.00;;;;;;5062077;28;21249;-73
2022/05/31 00:53:26;;;;;;;9.33;5.97;;;11.50;1.00;;;;;;5060560;28;20473;-74
2022/05/31 00:55:57;;;;;;;8.27;4.67;;;11.50;1.00;;;;;;5059947;28;20526;-74
2022/05/31 00:58:29;;;;;;;9.10;5.03;;;11.50;1.00;;;;;;5060396;28;20476;-73
2022/05/31 01:00:56;;;;;;;7.43;4.57;;;11.60;1.00;;;;;;5059575;28;20484;-74
2022/05/31 01:03:24;;;;;;;9.87;5.17;;;11.50;1.00;;;;;;5061157;28;21222;-73
2022/05/31 01:05:51;;;;;;;7.70;4.60;;;11.50;1.00;;;;;;5062958;28;20522;-73
2022/05/31 01:08:18;;;;;;;8.50;5.20;;;11.50;1.00;;;;;;5059336;28;20456;-73
2022/05/31 01:10:45;;;;;;;8.77;5.33;;;11.50;1.00;;;;;;5064914;28;20480;-73
2022/05/31 01:13:16;;;;;;;9.03;5.33;;;11.60;1.00;;;;;;5064703;28;20453;-72
2022/05/31 01:15:43;;;;;;;7.47;4.63;;;11.60;1.00;;;;;;5063106;28;20472;-72
2022/05/31 01:18:10;;;;;;;10.00;5.00;;;11.60;1.00;;;;;;5067140;28;20464;-72
2022/05/31 01:20:39;;;;;;;8.83;4.77;;;11.60;1.00;;;;;;5062476;28;20898;-72
2022/05/31 01:23:11;;;;;;;8.57;4.30;;;11.70;1.00;;;;;;5061819;28;20556;-71
2022/05/31 01:25:49;;;;;;;10.57;4.77;;;11.80;1.00;;;;;;5064781;28;20499;-72
2022/05/31 01:28:30;;;;;;;8.27;4.60;;;11.80;1.00;;;;;;5062347;28;20531;-72
2022/05/31 01:31:00;;;;;;;9.73;4.80;;;11.80;1.00;;;;;;5064437;28;20489;-72
2022/05/31 01:33:31;;;;;;;8.33;4.63;;;11.80;1.00;;;;;;5063526;27;20464;-72
2022/05/31 01:36:07;;;;;;;8.40;5.30;;;11.80;1.00;;;;;;5060777;28;20501;-72
2022/05/31 01:38:40;;;;;;;8.00;4.80;;;11.80;1.00;;;;;;5062735;28;21303;-72
2022/05/31 01:41:15;;;;;;;9.53;5.10;;;11.80;1.00;;;;;;5062495;28;20476;-73
2022/05/31 01:43:43;;;;;;;7.90;4.87;;;11.70;1.00;;;;;;5064732;28;20981;-73
2022/05/31 01:46:15;;;;;;;8.03;4.80;;;11.80;1.00;;;;;;5060199;28;20551;-72
2022/05/31 01:48:43;;;;;;;8.27;4.43;;;11.70;1.00;;;;;;5060000;28;20450;-73
2022/05/31 01:51:12;;;;;;;9.40;5.27;;;11.70;1.00;;;;;;5056618;28;20464;-72
2022/05/31 01:53:42;;;;;;;7.73;4.20;;;11.60;1.00;;;;;;5064166;28;20468;-73
2022/05/31 01:56:11;;;;;;;10.13;4.53;;;11.60;1.00;;;;;;5064576;28;20481;-73
2022/05/31 01:58:41;;;;;;;7.10;4.20;;;11.50;1.00;;;;;;5061958;28;20504;-73
2022/05/31 02:01:09;;;;;;;8.30;4.63;;;11.40;1.00;;;;;;5061723;28;20492;-72
2022/05/31 02:03:40;;;;;;;7.00;3.57;;;11.30;1.00;;;;;;5064006;28;20547;-73
2022/05/31 02:06:25;;;;;;;9.20;4.80;;;11.30;1.00;;;;;;5065528;28;20508;-73
2022/05/31 02:08:52;;;;;;;7.83;4.10;;;11.20;1.00;;;;;;5064659;28;20546;-73
2022/05/31 02:11:19;;;;;;;8.37;4.60;;;11.10;1.00;;;;;;5064034;28;20475;-73
2022/05/31 02:13:46;;;;;;;8.57;4.90;;;11.10;1.00;;;;;;5065144;28;20455;-73
2022/05/31 02:16:13;;;;;;;9.50;4.23;;;11.00;1.00;;;;;;5063652;28;20553;-73
2022/05/31 02:21:36;;;;;;;8.40;4.90;;;10.90;1.00;;;;;;5051979;28;21034;-73
2022/05/31 02:24:06;;;;;;;8.30;5.10;;;10.80;1.00;;;;;;5063695;28;20464;-72
2022/05/31 02:26:32;;;;;;;7.53;4.23;;;10.70;1.00;;;;;;5062261;28;21196;-72
2022/05/31 02:28:59;;;;;;;9.97;4.70;;;10.70;1.00;;;;;;5060361;28;20790;-73
2022/05/31 02:31:26;;;;;;;7.20;4.10;;;10.60;1.00;;;;;;5062832;28;20467;-72
2022/05/31 02:33:53;;;;;;;8.27;4.30;;;10.50;1.00;;;;;;5064110;28;20530;-72
2022/05/31 02:36:20;;;;;;;10.07;5.00;;;10.50;1.00;;;;;;5065666;28;20449;-73
2022/05/31 02:38:48;;;;;;;9.30;4.90;;;10.40;1.00;;;;;;5062818;28;20487;-73
2022/05/31 02:41:15;;;;;;;10.00;4.50;;;10.40;1.00;;;;;;5062973;28;20535;-72
2022/05/31 02:43:42;;;;;;;7.90;4.40;;;10.30;1.00;;;;;;5061441;28;21384;-72
2022/05/31 02:46:08;;;;;;;8.70;5.10;;;10.30;1.00;;;;;;5061449;28;20601;-72
2022/05/31 02:48:35;;;;;;;7.43;4.30;;;10.40;1.00;;;;;;5060606;28;21139;-72
2022/05/31 02:51:02;;;;;;;8.63;5.17;;;10.50;1.00;;;;;;5061524;28;20459;-73
2022/05/31 02:53:29;;;;;;;11.30;5.50;;;10.50;1.00;;;;;;5063892;28;20475;-73
2022/05/31 02:55:57;;;;;;;8.20;4.97;;;10.50;1.00;;;;;;5063600;28;20263;-73
2022/05/31 02:58:24;;;;;;;9.70;4.60;;;10.50;1.00;;;;;;5062545;28;20449;-73
2022/05/31 03:00:51;;;;;;;9.10;4.70;;;10.60;1.00;;;;;;5062015;28;20523;-73
2022/05/31 03:03:18;;;;;;;7.30;4.03;;;10.70;1.00;;;;;;5065582;28;20460;-73
2022/05/31 03:05:45;;;;;;;7.03;3.80;;;10.80;1.00;;;;;;5061946;28;20472;-74
2022/05/31 03:08:12;;;;;;;7.70;4.07;;;10.80;1.00;;;;;;5064916;28;20472;-73
2022/05/31 03:10:44;;;;;;;6.73;3.70;;;10.90;1.00;;;;;;5062207;28;20460;-74
2022/05/31 03:13:13;;;;;;;6.77;4.00;;;11.00;1.00;;;;;;5062853;28;20559;-74
2022/05/31 03:15:41;;;;;;;7.40;3.80;;;11.00;1.00;;;;;;5062992;28;20480;-72
2022/05/31 03:18:10;;;;;;;6.70;3.73;;;11.00;1.00;;;;;;5063712;28;20558;-73
2022/05/31 03:20:42;;;;;;;12.50;5.27;;;11.00;1.00;;;;;;5063799;28;21004;-72
2022/05/31 03:23:14;;;;;;;8.63;4.50;;;11.00;1.00;;;;;;5063357;28;20452;-75
2022/05/31 03:25:42;;;;;;;8.17;4.30;;;11.00;1.00;;;;;;5065430;28;20490;-74
2022/05/31 03:28:12;;;;;;;8.40;4.43;;;11.00;1.00;;;;;;5064970;28;20445;-74
2022/05/31 03:30:39;;;;;;;12.30;4.60;;;11.10;1.00;;;;;;5062270;28;20463;-74
2022/05/31 03:33:08;;;;;;;9.83;4.43;;;11.10;1.00;;;;;;5061970;28;20480;-73
2022/05/31 03:35:35;;;;;;;7.30;3.87;;;11.10;1.00;;;;;;5060012;28;20508;-74
2022/05/31 03:38:01;;;;;;;8.10;4.50;;;11.10;1.00;;;;;;5060541;28;20591;-73
2022/05/31 03:43:13;;;;;;;8.60;4.37;;;11.10;1.00;;;;;;5058071;28;20965;-72
2022/05/31 03:45:43;;;;;;;9.83;5.13;;;11.10;1.00;;;;;;5059091;28;20906;-74
2022/05/31 03:48:11;;;;;;;10.90;4.63;;;11.10;1.00;;;;;;5063905;28;20460;-73
2022/05/31 03:50:39;;;;;;;9.03;4.50;;;11.10;1.00;;;;;;5062672;28;20459;-73
2022/05/31 03:53:07;;;;;;;10.63;5.80;;;11.10;1.00;;;;;;5054245;28;20813;-74
2022/05/31 03:55:37;;;;;;;14.67;5.30;;;11.10;1.00;;;;;;5073545;28;20490;-73
2022/05/31 03:58:05;;;;;;;11.30;5.60;;;11.00;1.00;;;;;;5061061;28;20489;-74
2022/05/31 04:00:33;;;;;;;10.53;4.67;;;11.00;1.00;;;;;;5061776;28;20460;-73
2022/05/31 04:03:01;;;;;;;12.73;6.70;;;11.00;1.00;;;;;;5051391;28;20535;-74
2022/05/31 04:05:28;;;;;;;9.50;4.83;;;10.90;1.00;;;;;;5057375;28;20475;-74
2022/05/31 04:07:56;;;;;;;7.80;5.10;;;11.00;1.00;;;;;;5054124;28;20826;-74
2022/05/31 04:10:23;;;;;;;10.67;5.63;;;10.90;1.00;;;;;;5057662;28;20917;-73
2022/05/31 04:12:49;;;;;;;11.47;5.03;;;10.90;1.00;;;;;;5073789;28;20975;-73
2022/05/31 04:15:16;;;;;;;11.90;5.80;;;10.90;1.00;;;;;;5059123;28;20594;-73
2022/05/31 04:17:46;;;;;;;11.23;5.77;;;10.90;1.00;;;;;;5064906;28;21069;-72
2022/05/31 04:20:13;;;;;;;12.20;7.23;;;10.90;1.00;;;;;;5059368;28;20522;-75
2022/05/31 04:22:41;;;;;;;11.00;7.23;;;10.90;1.00;;;;;;5062154;28;20467;-74
2022/05/31 04:25:08;;;;;;;22.90;20.23;;;10.90;1.00;;;;;;5061658;28;20946;-73
2022/05/31 04:27:35;;;;;;;11.20;7.00;;;10.90;1.00;;;;;;5065037;28;20460;-73
2022/05/31 04:30:01;;;;;;;10.60;6.10;;;10.90;1.00;;;;;;5063910;28;22191;-73
2022/05/31 04:32:29;;;;;;;10.00;6.23;;;11.00;1.00;;;;;;5062241;28;20486;-73
2022/05/31 04:34:57;;;;;;;11.17;7.17;;;11.00;1.00;;;;;;5062451;28;20593;-73
2022/05/31 04:37:24;;;;;;;13.30;6.77;;;11.10;1.00;;;;;;5065786;28;20528;-73
2022/05/31 04:39:50;;;;;;;10.17;7.00;;;11.10;1.00;;;;;;5059366;28;20471;-73
2022/05/31 04:42:17;;;;;;;12.27;9.37;;;11.20;1.00;;;;;;5061894;28;20577;-74
2022/05/31 04:44:44;;;;;;;11.67;7.10;;;11.20;1.00;;;;;;5064735;28;20464;-73
2022/05/31 04:47:12;;;;;;;10.33;6.40;;;11.30;1.00;;;;;;5063141;28;20476;-74
2022/05/31 04:49:39;;;;;;;10.80;6.10;;;11.30;1.00;;;;;;5066213;28;20468;-73
2022/05/31 04:52:07;;;;;;;12.00;6.57;;;11.40;1.00;;;;;;5063677;28;20487;-74
2022/05/31 04:54:33;;;;;;;9.90;6.50;;;11.40;1.00;;;;;;5063924;28;21862;-73
2022/05/31 04:57:00;;;;;;;9.60;7.10;;;11.40;1.00;;;;;;5061464;28;20959;-73
2022/05/31 04:59:28;;;;;;;8.97;6.10;;;11.50;1.00;;;;;;5063497;28;20469;-73
2022/05/31 05:01:55;;;;;;;10.70;5.90;;;11.60;1.00;;;;;;5058804;28;20563;-73
2022/05/31 05:04:22;;;;;;;11.37;6.60;;;11.60;1.00;;;;;;5065602;28;20483;-74
2022/05/31 05:06:48;;;;;;;9.20;5.77;;;11.60;1.00;;;;;;5053077;28;20459;-75
2022/05/31 05:09:17;;;;;;;8.97;5.10;;;11.60;1.00;;;;;;5077303;28;20459;-74
2022/05/31 05:11:45;;;;;;;9.40;6.27;;;11.70;1.00;;;;;;5063184;28;20516;-76
2022/05/31 05:14:11;;;;;;;11.27;5.70;;;11.80;1.00;;;;;;5063360;28;20473;-76
2022/05/31 05:16:38;;;;;;;8.83;5.13;;;11.80;1.00;;;;;;5063009;28;20514;-77
2022/05/31 05:19:05;;;;;;;9.93;5.50;;;11.90;1.00;;;;;;5061838;28;20469;-76
2022/05/31 05:21:32;;;;;;;8.30;4.67;;;12.00;1.00;;;;;;5062205;28;20532;-76
2022/05/31 05:23:59;;;;;;;10.13;6.23;;;12.10;1.00;;;;;;5057318;28;20475;-76
2022/05/31 05:26:29;;;;;;;9.80;5.00;;;12.20;1.00;;;;;;5062350;28;20552;-76
2022/05/31 05:31:41;;;;;;;7.80;5.23;;;12.30;1.00;;;;;;5066273;28;20977;-74
2022/05/31 05:34:10;;;;;;;10.20;6.30;;;12.40;1.00;;;;;;5068575;28;20467;-76
2022/05/31 05:36:36;;;;;;;14.27;7.33;;;12.50;1.00;;;;;;5064949;28;20457;-75
2022/05/31 05:39:10;;;;;;;14.40;6.23;;;12.60;1.00;;;;;;5064958;28;20602;-75
2022/05/31 05:41:39;;;;;;;7.47;4.13;;;12.70;1.00;;;;;;5065412;28;20465;-76
2022/05/31 05:44:07;;;;;;;7.47;3.97;;;12.70;1.00;;;;;;5066682;28;20600;-75
2022/05/31 05:46:34;;;;;;;8.40;4.30;;;12.80;1.00;;;;;;5054800;28;20454;-75
2022/05/31 05:49:01;;;;;;;10.40;4.87;;;12.90;1.00;;;;;;5062019;27;20459;-74
2022/05/31 05:51:31;;;;;;;28.50;7.67;;;12.90;1.00;;;;;;5063454;28;21139;-76
2022/05/31 05:53:59;;;;;;;13.40;6.40;;;13.00;1.00;;;;;;5064010;28;20924;-75
2022/05/31 05:56:29;;;;;;;8.40;3.70;;;13.20;1.00;;;;;;5061314;28;20940;-74
2022/05/31 05:58:57;;;;;;;7.97;4.60;;;13.30;1.00;;;;;;5071574;28;20484;-75
2022/05/31 06:01:29;;;;;;;7.50;4.13;;;13.30;1.00;;;;;;5063761;28;20433;-75
2022/05/31 06:04:01;;;;;;;6.90;3.70;;;13.30;1.00;;;;;;5074262;28;20483;-74
2022/05/31 06:06:34;;;;;;;6.10;3.17;;;13.40;1.00;;;;;;5071781;28;20470;-76
2022/05/31 06:09:03;;;;;;;7.83;3.80;;;13.50;1.00;;;;;;5063418;28;20959;-74
2022/05/31 06:11:35;;;;;;;11.17;3.77;;;13.50;1.00;;;;;;5069515;28;20535;-75
2022/05/31 06:14:12;;;;;;;8.80;3.30;;;13.50;1.00;;;;;;5063945;28;20806;-77
2022/05/31 06:16:46;;;;;;;7.10;3.77;;;13.40;1.00;;;;;;5068985;28;20524;-75
2022/05/31 06:19:17;;;;;;;17.57;7.37;;;13.60;1.00;;;;;;5068905;28;20419;-77
2022/05/31 06:21:45;;;;;;;7.13;3.97;;;13.60;1.00;;;;;;5067635;28;20831;-76
2022/05/31 06:24:13;;;;;;;9.07;3.53;;;13.80;1.00;;;;;;5067740;28;20553;-75
2022/05/31 06:26:39;;;;;;;6.40;3.03;;;14.00;1.00;;;;;;5066425;28;20431;-75
2022/05/31 06:29:08;;;;;;;7.57;4.03;;;14.10;1.00;;;;;;5069911;28;20463;-76
2022/05/31 06:31:36;;;;;;;10.70;4.73;;;14.10;1.00;;;;;;5061861;28;20454;-75
2022/05/31 06:34:03;;;;;;;7.03;3.37;;;14.20;1.00;;;;;;5072313;28;20509;-74
2022/05/31 06:36:30;;;;;;;6.80;3.50;;;14.30;1.00;;;;;;5067823;28;20509;-75
2022/05/31 06:38:57;;;;;;;7.43;3.40;;;14.30;1.00;;;;;;5065272;28;20466;-75
2022/05/31 06:41:24;;;;;;;9.27;3.40;;;14.40;1.00;;;;;;5067644;28;20625;-75
2022/05/31 06:43:55;;;;;;;8.40;2.97;;;14.40;1.00;;;;;;5067633;28;20479;-76
2022/05/31 06:46:24;;;;;;;8.53;3.07;;;14.50;1.00;;;;;;5062464;28;20459;-75
2022/05/31 06:48:51;;;;;;;8.50;3.60;;;14.50;1.00;;;;;;5062341;28;21079;-75
2022/05/31 06:56:48;;;;;;;7.57;2.40;;;14.50;1.00;;;;;;5068934;28;20507;-74
2022/05/31 06:56:51;;;;;;;7.10;3.00;;;14.50;1.00;;;;;;5065544;28;20544;-74
2022/05/31 06:59:18;;;;;;;8.30;3.27;;;14.60;1.00;;;;;;5065603;27;20467;-76
2022/05/31 07:01:47;;;;;;;8.67;3.00;;;14.70;1.00;;;;;;5065832;28;20483;-75
2022/05/31 07:04:15;;;;;;;6.70;2.40;;;14.80;1.00;;;;;;5064270;28;20578;-75
2022/05/31 07:06:42;;;;;;;7.33;2.80;;;14.90;1.00;;;;;;5065433;28;20447;-74
2022/05/31 07:09:09;;;;;;;7.10;2.70;;;15.00;1.00;;;;;;5060807;28;20491;-75
2022/05/31 07:11:36;;;;;;;9.30;2.80;;;15.00;1.00;;;;;;5065183;28;20460;-74
2022/05/31 07:14:02;;;;;;;7.00;2.70;;;15.10;1.00;;;;;;5065364;28;20542;-75
2022/05/31 07:16:29;;;;;;;7.40;2.23;;;15.20;1.00;;;;;;5066028;28;20536;-75
2022/05/31 07:18:58;;;;;;;7.27;2.50;;;15.30;1.00;;;;;;5064751;28;20560;-74
2022/05/31 07:21:24;;;;;;;6.10;2.57;;;15.40;1.00;;;;;;5066578;28;20455;-74
2022/05/31 07:23:53;;;;;;;7.47;2.73;;;15.40;1.00;;;;;;5066958;28;20550;-79
2022/05/31 07:26:21;;;;;;;8.40;2.80;;;15.60;1.00;;;;;;5063974;28;21204;-74
2022/05/31 07:28:48;;;;;;;7.10;3.00;;;15.80;1.00;;;;;;5065803;27;20582;-75
2022/05/31 07:31:15;;;;;;;7.30;2.67;;;16.00;1.00;;;;;;5064907;28;20542;-76
2022/05/31 07:33:42;;;;;;;8.60;3.00;;;16.20;1.00;;;;;;5052267;28;20483;-75
2022/05/31 07:36:10;;;;;;;7.40;2.97;;;16.30;1.00;;;;;;5056338;28;20455;-75
2022/05/31 07:38:37;;;;;;;9.60;2.83;;;16.50;1.00;;;;;;5063022;28;20558;-75
2022/05/31 07:41:04;;;;;;;7.67;2.30;;;16.60;1.00;;;;;;5065208;28;20459;-77
2022/05/31 07:43:31;;;;;;;8.60;3.20;;;16.60;1.00;;;;;;5066662;28;20476;-76
2022/05/31 07:46:05;;;;;;;7.10;2.57;;;16.70;1.00;;;;;;5064099;28;20865;-76
2022/05/31 07:48:34;;;;;;;9.73;2.57;;;16.80;1.00;;;;;;5067430;28;20454;-75
2022/05/31 07:51:04;;;;;;;9.07;3.00;;;16.80;1.00;;;;;;5069558;28;20468;-76
2022/05/31 07:53:35;;;;;;;6.23;2.23;;;17.00;1.00;;;;;;5061565;28;20477;-75
2022/05/31 07:56:06;;;;;;;6.00;1.80;;;17.10;1.00;;;;;;5056589;28;20459;-76
2022/05/31 07:58:33;;;;;;;7.63;2.50;;;17.30;1.00;;;;;;5068482;28;20554;-76
2022/05/31 08:01:02;;;;;;;6.40;2.27;;;17.40;1.00;;;;;;5071134;28;20453;-76
2022/05/31 08:03:29;;;;;;;7.43;2.47;;;17.40;1.00;;;;;;5067447;28;20654;-75
2022/05/31 08:05:57;;;;;;;5.77;1.70;;;17.50;1.00;;;;;;5066763;28;20423;-75
2022/05/31 08:08:25;;;;;;;6.50;2.20;;;17.40;1.00;;;;;;5067466;28;20468;-74
2022/05/31 08:10:53;;;;;;;8.33;2.10;;;17.50;1.00;;;;;;5067557;28;20498;-76
2022/05/31 08:13:19;;;;;;;7.80;2.20;;;17.30;1.00;;;;;;5065338;28;20439;-76
2022/05/31 08:15:46;;;;;;;7.80;1.80;;;17.10;1.00;;;;;;5065234;28;20541;-76
2022/05/31 08:18:12;;;;;;;5.70;1.87;;;17.00;1.00;;;;;;5065789;28;20935;-75
2022/05/31 08:20:39;;;;;;;5.80;1.73;;;16.90;1.00;;;;;;5067175;28;20460;-75
2022/05/31 08:23:06;;;;;;;8.97;2.57;;;17.00;1.00;;;;;;5065586;28;20502;-76
2022/05/31 08:25:34;;;;;;;5.73;1.63;;;17.10;1.00;;;;;;5066131;28;20456;-76
2022/05/31 08:28:02;;;;;;;10.27;2.30;;;17.20;1.00;;;;;;5062263;28;20982;-75
2022/05/31 08:30:30;;;;;;;9.53;2.17;;;17.40;1.00;;;;;;5059999;28;20472;-75
2022/05/31 08:32:56;;;;;;;8.80;2.20;;;17.40;1.00;;;;;;5063448;28;20559;-76
2022/05/31 08:35:24;;;;;;;6.70;1.50;;;17.70;1.00;;;;;;5064639;28;20484;-76
2022/05/31 08:37:50;;;;;;;5.63;1.90;;;17.90;1.00;;;;;;5063761;28;20653;-76
2022/05/31 08:40:17;;;;;;;6.20;2.00;;;18.10;1.00;;;;;;5061158;28;20554;-75
2022/05/31 08:42:51;;;;;;;8.50;2.13;;;18.10;1.00;;;;;;5063751;28;20521;-75
2022/05/31 08:45:33;;;;;;;5.80;1.90;;;18.10;1.00;;;;;;5064427;28;20467;-75
2022/05/31 08:48:08;;;;;;;6.50;1.70;;;18.10;1.00;;;;;;5059631;28;20963;-75
2022/05/31 08:53:38;;;;;;;8.93;1.90;;;18.30;1.00;;;;;;5061642;28;20466;-74
2022/05/31 08:59:00;;;;;;;7.70;3.17;;;18.30;1.00;;;;;;5061911;28;20509;-74
2022/05/31 09:01:33;;;;;;;5.43;2.10;;;18.40;1.00;;;;;;5059967;28;20507;-73
2022/05/31 09:04:05;;;;;;;8.33;2.60;;;18.40;1.00;;;;;;5058805;28;20566;-74
2022/05/31 09:06:43;;;;;;;5.60;1.73;;;18.50;1.00;;;;;;5063963;28;20542;-73
2022/05/31 09:09:14;;;;;;;7.30;2.37;;;18.70;1.00;;;;;;5055157;28;20528;-73
2022/05/31 09:11:50;;;;;;;6.47;2.23;;;18.90;1.00;;;;;;5063779;28;20526;-74
2022/05/31 09:14:22;;;;;;;5.80;1.97;;;19.10;1.00;;;;;;5063772;28;20959;-74
2022/05/31 09:16:58;;;;;;;7.27;1.80;;;19.20;1.00;;;;;;5062598;28;20839;-74
2022/05/31 09:19:35;;;;;;;8.27;2.30;;;19.00;1.00;;;;;;5062937;28;20467;-75
2022/05/31 09:22:02;;;;;;;7.50;1.93;;;19.00;1.00;;;;;;5061736;28;21285;-74
2022/05/31 09:24:29;;;;;;;5.27;1.90;;;19.20;1.00;;;;;;5063018;28;20604;-74
2022/05/31 09:27:06;;;;;;;6.80;1.77;;;19.40;1.00;;;;;;5061967;28;20475;-74
2022/05/31 09:29:48;;;;;;;6.17;1.80;;;19.50;1.00;;;;;;5060160;28;20475;-74
2022/05/31 09:32:25;;;;;;;6.67;1.90;;;19.60;1.00;;;;;;5060738;28;20553;-74
2022/05/31 09:35:17;;;;;;;7.07;1.80;;;20.40;1.00;;;;;;5065184;28;21231;-73
2022/05/31 09:38:00;;;;;;;6.67;1.73;;;21.70;1.00;;;;;;5065023;28;20482;-76
2022/05/31 09:40:39;;;;;;;10.60;2.40;;;23.20;1.00;;;;;;5068600;28;20455;-74
2022/05/31 09:43:16;;;;;;;8.90;2.20;;;24.10;1.00;;;;;;5055442;28;20524;-74
2022/05/31 09:45:52;;;;;;;7.20;2.47;;;24.60;1.00;;;;;;5065296;28;20475;-75
2022/05/31 09:48:20;;;;;;;9.17;6.10;;;24.90;1.00;;;;;;5065248;28;20502;-75
2022/05/31 09:50:47;;;;;;;6.40;2.20;;;25.30;1.00;;;;;;5065968;28;20475;-75
2022/05/31 09:59:06;;;;;;;7.30;2.13;;;25.50;1.00;;;;;;5064641;28;20959;-74
2022/05/31 10:01:41;;;;;;;5.97;1.80;;;26.00;1.00;;;;;;5068145;28;20478;-75
2022/05/31 10:04:12;;;;;;;5.90;1.40;;;26.70;1.00;;;;;;5068624;28;20949;-77
2022/05/31 10:06:53;;;;;;;5.20;1.70;;;26.80;1.00;;;;;;5069226;28;21039;-74
2022/05/31 10:09:23;;;;;;;6.37;1.97;;;27.40;1.00;;;;;;5066996;28;20448;-75
2022/05/31 10:12:03;;;;;;;5.80;1.67;;;27.80;1.00;;;;;;5064335;28;20455;-73
2022/05/31 10:14:35;;;;;;;6.10;2.20;;;27.90;1.00;;;;;;5063658;28;20459;-74
2022/05/31 10:17:27;;;;;;;7.83;2.50;;;26.70;1.00;;;;;;5063866;28;20475;-76
2022/05/31 10:20:09;;;;;;;6.67;1.93;;;25.30;1.00;;;;;;5061811;28;21204;-76
2022/05/31 10:22:37;;;;;;;5.67;1.30;;;24.10;1.00;;;;;;5064292;28;20460;-75
2022/05/31 10:25:19;;;;;;;7.00;1.93;;;22.90;1.00;;;;;;5063272;28;20455;-77
2022/05/31 10:27:46;;;;;;;6.60;1.90;;;22.60;1.00;;;;;;5065505;28;20478;-74
2022/05/31 10:30:18;;;;;;;7.47;1.87;;;23.10;1.00;;;;;;5062654;28;20505;-76
2022/05/31 10:32:50;;;;;;;11.40;2.30;;;23.10;1.00;;;;;;5066210;28;20467;-75
2022/05/31 10:35:21;;;;;;;6.20;1.80;;;24.30;1.00;;;;;;5062619;28;20459;-75
2022/05/31 10:37:55;;;;;;;6.27;2.67;;;24.70;1.00;;;;;;5066225;28;20513;-74
2022/05/31 10:40:26;;;;;;;6.60;1.87;;;24.30;1.00;;;;;;5065503;28;20459;-75
2022/05/31 10:42:58;;;;;;;6.20;1.83;;;24.90;1.00;;;;;;5063648;28;20906;-74
2022/05/31 10:45:31;;;;;;;8.37;4.23;;;26.10;1.00;;;;;;5063113;28;20456;-74
2022/05/31 10:48:00;;;;;;;6.60;1.60;;;27.20;1.00;;;;;;5068643;28;20494;-74
2022/05/31 10:50:34;;;;;;;6.23;1.57;;;27.60;1.00;;;;;;5056276;28;20888;-75
2022/05/31 10:53:17;;;;;;;6.30;1.90;;;27.90;1.00;;;;;;5063225;28;20452;-76
2022/05/31 10:55:51;;;;;;;7.10;1.60;;;28.50;1.00;;;;;;5063483;28;20459;-75
2022/05/31 10:58:32;;;;;;;6.47;1.90;;;28.70;1.00;;;;;;5068803;28;20923;-74
2022/05/31 11:01:06;;;;;;;5.33;1.57;;;29.00;1.00;;;;;;5051256;28;20545;-74
2022/05/31 11:03:42;;;;;;;6.23;1.87;;;29.60;1.00;;;;;;5062827;28;20460;-75
2022/05/31 11:06:21;;;;;;;6.97;1.97;;;30.40;1.00;;;;;;5063959;28;20459;-74
2022/05/31 11:12:05;;;;;;;7.50;2.70;;;28.90;1.00;;;;;;5059907;28;20957;-75
2022/05/31 11:14:49;;;;;;;6.43;2.00;;;27.00;1.00;;;;;;5061711;28;20464;-74
2022/05/31 11:17:34;;;;;;;5.63;1.87;;;26.10;1.00;;;;;;5065031;28;21048;-75
2022/05/31 11:20:10;;;;;;;10.07;2.80;;;25.50;1.00;;;;;;5064403;28;20484;-76
2022/05/31 11:22:51;;;;;;;9.07;2.83;;;25.70;1.00;;;;;;5065742;28;20538;-75
2022/05/31 11:25:42;;;;;;;8.17;2.50;;;25.30;1.00;;;;;;5060371;28;20470;-75
2022/05/31 11:28:24;;;;;;;6.43;2.00;;;25.60;1.00;;;;;;5064894;28;20475;-76
2022/05/31 11:31:16;;;;;;;5.70;2.10;;;27.40;1.00;;;;;;5059126;28;20471;-75
2022/05/31 11:34:02;;;;;;;5.70;1.77;;;29.10;1.00;;;;;;5061481;28;20455;-77
2022/05/31 11:36:39;;;;;;;5.77;2.13;;;31.30;1.00;;;;;;5067356;28;20917;-76
2022/05/31 11:39:22;;;;;;;6.00;1.80;;;32.40;1.00;;;;;;5062781;28;21590;-76
2022/05/31 11:42:00;;;;;;;6.60;2.03;;;33.10;1.00;;;;;;5063886;28;20562;-75
2022/05/31 11:44:45;;;;;;;5.50;1.43;;;33.60;1.00;;;;;;5063899;28;20514;-77
2022/05/31 11:47:25;;;;;;;6.87;1.80;;;34.00;1.00;;;;;;5067609;28;20594;-75
2022/05/31 11:50:01;;;;;;;9.07;2.17;;;32.50;1.00;;;;;;5066327;28;20460;-75
2022/05/31 11:52:49;;;;;;;5.07;2.00;;;32.20;1.00;;;;;;5063833;28;20511;-74
2022/05/31 11:55:29;;;;;;;5.87;1.73;;;32.00;1.00;;;;;;5061815;28;20877;-75
2022/05/31 11:58:14;;;;;;;6.00;2.10;;;30.90;1.00;;;;;;5063772;28;20451;-76
2022/05/31 12:00:47;;;;;;;5.43;1.90;;;31.10;1.00;;;;;;5061568;28;20518;-74
2022/05/31 12:03:20;;;;;;;7.27;2.00;;;31.90;1.00;;;;;;5061682;28;20506;-75
2022/05/31 12:05:51;;;;;;;8.10;3.80;;;31.40;1.00;;;;;;5063536;28;20506;-76
2022/05/31 12:08:27;;;;;;;5.70;1.70;;;31.70;1.00;;;;;;5066127;28;20479;-75
2022/05/31 12:10:59;;;;;;;5.30;1.57;;;30.80;1.00;;;;;;5064058;28;20563;-76
2022/05/31 12:13:27;;;;;;;6.37;2.50;;;29.60;1.00;;;;;;5063769;28;20601;-76
2022/05/31 12:15:55;;;;;;;5.50;1.70;;;28.70;1.00;;;;;;5062743;28;20455;-76
2022/05/31 12:18:32;;;;;;;7.73;4.67;;;28.00;1.00;;;;;;5063268;28;20459;-76
2022/05/31 12:21:03;;;;;;;5.97;1.93;;;27.10;1.00;;;;;;5053969;28;20471;-76
2022/05/31 12:23:35;;;;;;;16.23;5.20;;;26.30;1.00;;;;;;5081773;28;20483;-75
2022/05/31 12:26:15;;;;;;;5.53;1.70;;;25.60;1.00;;;;;;5063236;28;20914;-75
2022/05/31 12:28:49;;;;;;;5.43;1.60;;;25.50;1.00;;;;;;5061998;28;20931;-76
2022/05/31 12:31:22;;;;;;;5.73;1.60;;;26.00;1.00;;;;;;5061136;28;20493;-76
2022/05/31 12:33:49;;;;;;;9.30;2.57;;;28.10;1.00;;;;;;5059269;28;20475;-75
2022/05/31 12:36:17;;;;;;;6.17;1.90;;;30.20;1.00;;;;;;5063782;28;20443;-76
2022/05/31 12:39:05;;;;;;;7.80;2.80;;;30.80;1.00;;;;;;5059865;28;20462;-75
2022/05/31 12:41:36;;;;;;;6.80;2.30;;;29.90;1.00;;;;;;5063568;28;20476;-75
2022/05/31 12:44:10;;;;;;;6.47;1.83;;;29.20;1.00;;;;;;5060497;28;20476;-76
2022/05/31 12:46:40;;;;;;;6.60;2.10;;;29.20;1.00;;;;;;5063294;28;20491;-76
2022/05/31 12:49:11;;;;;;;6.60;2.10;;;28.60;1.00;;;;;;5061784;28;20444;-76
2022/05/31 12:51:38;;;;;;;11.30;3.43;;;28.90;1.00;;;;;;5063887;28;20887;-75
2022/05/31 12:54:18;;;;;;;6.00;1.97;;;30.50;1.00;;;;;;5058851;28;20523;-75
2022/05/31 12:57:19;;;;;;;7.90;2.17;;;31.70;1.00;;;;;;5063823;28;20950;-75
2022/05/31 12:59:52;;;;;;;10.90;8.77;;;33.00;1.00;;;;;;5058710;28;20542;-75
2022/05/31 13:02:36;;;;;;;6.23;1.67;;;34.40;1.00;;;;;;5058145;28;20476;-76
2022/05/31 13:05:23;;;;;;;6.20;1.73;;;33.10;1.00;;;;;;5060003;28;20459;-74
2022/05/31 13:07:50;;;;;;;6.30;2.53;;;30.50;1.00;;;;;;5065504;28;20505;-76
2022/05/31 13:10:39;;;;;;;6.60;2.53;;;28.70;1.00;;;;;;5064551;28;20936;-77
2022/05/31 13:21:30;;;;;;;7.93;2.10;;;24.90;1.00;;;;;;5064714;28;20938;-75
2022/05/31 13:23:59;;;;;;;5.97;1.70;;;24.90;1.00;;;;;;5064427;28;20467;-76
2022/05/31 13:26:30;;;;;;;11.80;4.80;;;24.30;1.00;;;;;;5070262;28;20491;-75
2022/05/31 13:29:04;;;;;;;8.43;2.40;;;24.00;1.00;;;;;;5064456;28;20471;-76
2022/05/31 13:31:35;;;;;;;5.87;1.90;;;23.90;1.00;;;;;;5069539;28;20921;-74
2022/05/31 13:34:05;;;;;;;6.53;2.33;;;23.80;1.00;;;;;;5069710;28;20489;-76
2022/05/31 13:36:33;;;;;;;8.07;2.50;;;23.40;1.00;;;;;;5067621;28;20511;-76
2022/05/31 13:39:04;;;;;;;9.53;2.70;;;23.10;1.00;;;;;;5061481;28;20911;-76
2022/05/31 13:41:32;;;;;;;7.43;2.43;;;23.00;1.00;;;;;;5067134;28;20491;-76
2022/05/31 13:44:02;;;;;;;7.97;2.40;;;23.40;1.00;;;;;;5068409;28;20982;-76
2022/05/31 13:46:31;;;;;;;7.00;2.27;;;23.60;1.00;;;;;;5067698;28;20502;-74
2022/05/31 13:49:03;;;;;;;6.47;2.33;;;23.40;1.00;;;;;;5069705;28;20497;-76